Time;durP1;ratioP1;P1;durP2;ratioP2;P2;SDS_P1;SDS_P2;PMS_P1;PMS_P2;Temp;Humidity;BMP_temperature;BMP_pressure;BME280_temperature;BME280_humidity;BME280_pressure;Samples;Min_cycle;Max_cycle;Signal;HPM_P1;HPM_P2
2022/05/03 00:02:30;;;;;;;11.33;8.37;;;;;;;-145.69;100.00;71883.97;5073336;28;20252;-76
2022/05/03 00:05:03;;;;;;;12.67;8.10;;;;;;;-145.69;100.00;71915.81;5073362;28;20206;-76
2022/05/03 00:07:39;;;;;;;17.23;9.00;;;;;;;-145.69;100.00;71933.72;5068773;28;20199;-76
2022/05/03 00:10:08;;;;;;;14.30;9.03;;;;;;;-145.69;100.00;71943.69;5052739;28;20199;-76
2022/05/03 00:12:36;;;;;;;15.23;8.87;;;;;;;-145.69;100.00;71941.69;5052954;28;20601;-76
2022/05/03 00:15:05;;;;;;;12.50;8.67;;;;;;;-145.69;100.00;71955.63;5053180;28;20227;-76
2022/05/03 00:17:33;;;;;;;15.70;9.20;;;;;;;-145.69;100.00;71951.63;5053024;28;20246;-76
2022/05/03 00:20:00;;;;;;;20.05;13.02;;;;;;;-145.69;100.00;71907.84;5051722;28;20490;-76
2022/05/03 00:22:26;;;;;;;20.00;12.03;;;;;;;-145.69;100.00;71872.03;5053217;28;20196;-76
2022/05/03 00:24:55;;;;;;;14.33;9.93;;;;;;;-145.69;100.00;71868.06;5052460;28;20214;-76
2022/05/03 00:27:26;;;;;;;14.33;9.30;;;;;;;-145.69;100.00;71881.97;5071061;28;20195;-76
2022/05/03 00:29:54;;;;;;;13.30;8.90;;;;;;;-145.69;100.00;71881.97;5072801;28;20668;-77
2022/05/03 00:32:22;;;;;;;14.20;7.93;;;;;;;-145.69;100.00;71897.91;5072539;28;20207;-76
2022/05/03 00:34:49;;;;;;;12.87;8.57;;;;;;;-145.69;100.00;71909.84;5073104;28;20237;-77
2022/05/03 00:37:15;;;;;;;12.43;7.90;;;;;;;-145.69;100.00;71939.69;5073215;28;20199;-76
2022/05/03 00:39:42;;;;;;;11.53;8.63;;;;;;;-145.69;100.00;71945.66;5072807;28;20203;-76
2022/05/03 00:42:18;;;;;;;15.97;9.30;;;;;;;-145.69;100.00;71951.63;5072623;28;20202;-76
2022/05/03 00:45:01;;;;;;;14.90;9.57;;;;;;;-145.69;100.00;71965.56;5073256;28;20202;-76
2022/05/03 00:47:38;;;;;;;14.13;7.90;;;;;;;-145.69;100.00;71969.53;5072481;28;20202;-76
2022/05/03 00:50:07;;;;;;;20.50;9.77;;;;;;;-145.69;100.00;71971.53;5072783;28;20317;-76
2022/05/03 00:52:40;;;;;;;20.63;13.18;;;;;;;-145.69;100.00;71955.63;5070921;28;21011;-75
2022/05/03 00:55:29;;;;;;;22.20;12.43;;;;;;;-145.69;100.00;71923.78;5072670;28;20244;-76
2022/05/03 00:58:08;;;;;;;19.57;11.30;;;;;;;-145.69;100.00;71899.88;5072428;28;20194;-76
2022/05/03 01:00:35;;;;;;;18.63;10.33;;;;;;;-145.69;100.00;71903.88;5072611;28;20202;-76
2022/05/03 01:03:11;;;;;;;14.23;9.63;;;;;;;-145.69;100.00;71915.81;5072786;28;20633;-76
2022/05/03 01:05:46;;;;;;;15.97;9.57;;;;;;;-145.69;100.00;71931.72;5072721;28;20202;-76
2022/05/03 01:08:34;;;;;;;20.37;10.30;;;;;;;-145.69;100.00;71939.69;5072868;28;20272;-76
2022/05/03 01:11:16;;;;;;;15.80;9.17;;;;;;;-145.69;100.00;71955.63;5072466;28;20191;-75
2022/05/03 01:13:48;;;;;;;13.00;9.20;;;;;;;-145.69;100.00;71975.50;5072702;28;20222;-76
2022/05/03 01:16:25;;;;;;;16.23;9.57;;;;;;;-145.69;100.00;71975.50;5072793;28;20198;-76
2022/05/03 01:18:55;;;;;;;17.97;10.80;;;;;;;-145.69;100.00;71951.63;5071885;28;20199;-76
2022/05/03 01:21:42;;;;;;;16.00;10.63;;;;;;;-145.69;100.00;71959.59;5072190;28;20199;-76
2022/05/03 01:24:28;;;;;;;15.73;10.20;;;;;;;-145.69;100.00;71933.72;5072254;28;20250;-77
2022/05/03 01:27:16;;;;;;;16.67;10.73;;;;;;;-145.69;100.00;71929.75;5072753;28;20289;-76
2022/05/03 01:29:46;;;;;;;21.87;9.67;;;;;;;-145.69;100.00;71947.66;5072453;28;20252;-76
2022/05/03 01:32:13;;;;;;;16.07;10.37;;;;;;;-145.69;100.00;71953.63;5074633;28;20202;-76
2022/05/03 01:34:44;;;;;;;25.53;10.23;;;;;;;-145.69;100.00;71967.56;5076084;28;20239;-77
2022/05/03 01:37:24;;;;;;;12.10;8.20;;;;;;;-145.69;100.00;72001.38;5075828;28;20556;-76
2022/05/03 01:40:03;;;;;;;13.90;9.10;;;;;;;-145.69;100.00;72023.28;5076389;28;20230;-76
2022/05/03 01:42:39;;;;;;;14.70;8.50;;;;;;;-145.69;100.00;72031.25;5076113;28;20281;-75
2022/05/03 01:45:08;;;;;;;14.17;8.73;;;;;;;-145.69;100.00;72041.19;5076077;28;20207;-76
2022/05/03 01:47:45;;;;;;;14.60;9.10;;;;;;;-145.69;100.00;72035.22;5076213;28;20206;-76
2022/05/03 01:50:19;;;;;;;15.37;8.97;;;;;;;-145.69;100.00;72041.19;5075893;28;20696;-76
2022/05/03 01:53:08;;;;;;;17.20;10.07;;;;;;;-145.69;100.00;72017.31;5075121;28;20277;-76
2022/05/03 01:56:14;;;;;;;19.90;10.93;;;;;;;-145.69;100.00;71995.41;5075873;28;20256;-76
2022/05/03 01:58:51;;;;;;;20.50;12.40;;;;;;;-145.69;100.00;71973.53;5054182;28;20198;-76
2022/05/03 02:01:34;;;;;;;24.20;12.00;;;;;;;-145.69;100.00;71973.53;5073514;28;20252;-76
2022/05/03 02:04:10;;;;;;;24.93;11.97;;;;;;;-145.69;100.00;71971.53;5055645;28;20298;-76
2022/05/03 02:06:47;;;;;;;24.80;12.83;;;;;;;-145.69;100.00;71967.56;5055758;28;20195;-76
2022/05/03 02:09:13;;;;;;;21.67;9.83;;;;;;;-145.69;100.00;71981.50;5055190;28;20305;-75
2022/05/03 02:11:52;;;;;;;17.80;10.33;;;;;;;-145.69;100.00;72003.38;5055335;28;20234;-75
2022/05/03 02:17:20;;;;;;;12.27;8.23;;;;;;;-145.69;100.00;72053.13;5054904;28;20676;-76
2022/05/03 02:20:11;;;;;;;16.83;8.63;;;;;;;-145.69;100.00;72055.13;5054996;28;20195;-76
2022/05/03 02:23:06;;;;;;;16.63;9.63;;;;;;;-145.69;100.00;72051.16;5067551;28;20201;-76
2022/05/03 02:25:46;;;;;;;16.37;9.67;;;;;;;-145.69;100.00;72045.16;5055280;28;20265;-76
2022/05/03 02:28:18;;;;;;;19.97;10.87;;;;;;;-145.69;100.00;72043.19;5055296;28;20207;-76
2022/05/03 02:30:46;;;;;;;16.23;10.40;;;;;;;-145.69;100.00;72063.09;5055602;28;20200;-76
2022/05/03 02:33:23;;;;;;;16.23;10.33;;;;;;;-145.69;100.00;72073.03;5055147;28;20282;-76
2022/05/03 02:35:55;;;;;;;17.37;9.40;;;;;;;-145.69;100.00;72079.00;5054493;28;20203;-76
2022/05/03 02:38:29;;;;;;;15.53;9.63;;;;;;;-145.69;100.00;72090.94;5054977;28;20199;-76
2022/05/03 02:40:59;;;;;;;17.53;9.83;;;;;;;-145.69;100.00;72096.91;5055083;28;20221;-75
2022/05/03 02:43:27;;;;;;;16.17;10.10;;;;;;;-145.69;100.00;72108.84;5072723;28;20202;-75
2022/05/03 02:46:06;;;;;;;22.43;12.50;;;;;;;-145.69;100.00;72079.00;5075092;28;20706;-76
2022/05/03 02:48:39;;;;;;;24.80;14.20;;;;;;;-145.69;100.00;72051.16;5074700;28;20226;-76
2022/05/03 02:51:08;;;;;;;27.00;13.80;;;;;;;-145.69;100.00;72051.16;5075060;28;20281;-76
2022/05/03 02:53:43;;;;;;;24.90;13.20;;;;;;;-145.69;100.00;72057.13;5074355;28;20615;-76
2022/05/03 02:56:20;;;;;;;27.70;13.97;;;;;;;-145.69;100.00;72047.16;5075019;28;20256;-76
2022/05/03 02:59:02;;;;;;;26.67;12.90;;;;;;;-145.69;100.00;72055.13;5074990;28;20203;-76
2022/05/03 03:01:48;;;;;;;20.90;11.87;;;;;;;-145.69;100.00;72063.09;5074288;28;20199;-75
2022/05/03 03:04:29;;;;;;;19.27;10.73;;;;;;;-145.69;100.00;72090.94;5074900;28;20238;-75
2022/05/03 03:06:56;;;;;;;18.07;10.33;;;;;;;-145.69;100.00;72108.84;5074551;28;20206;-76
2022/05/03 03:09:27;;;;;;;19.20;11.27;;;;;;;-145.69;100.00;72104.88;5074358;28;20195;-76
2022/05/03 03:11:57;;;;;;;21.40;11.60;;;;;;;-145.69;100.00;72110.84;5074239;28;20244;-76
2022/05/03 03:14:35;;;;;;;23.37;12.40;;;;;;;-145.69;100.00;72106.88;5074019;28;20237;-76
2022/05/03 03:17:05;;;;;;;25.13;13.63;;;;;;;-145.69;100.00;72094.94;5074605;28;20248;-76
2022/05/03 03:19:53;;;;;;;26.70;12.77;;;;;;;-145.69;100.00;72102.88;5074300;28;20203;-75
2022/05/03 03:22:21;;;;;;;22.07;12.67;;;;;;;-145.69;100.00;72122.78;5074233;28;20715;-75
2022/05/03 03:24:49;;;;;;;23.33;12.17;;;;;;;-145.69;100.00;72128.75;5074589;28;20281;-76
2022/05/03 03:27:20;;;;;;;20.33;12.03;;;;;;;-145.69;100.00;72124.78;5074387;28;20206;-76
2022/05/03 03:29:48;;;;;;;25.40;13.27;;;;;;;-145.69;100.00;72130.75;5074262;28;20203;-76
2022/05/03 03:32:16;;;;;;;32.20;15.47;;;;;;;-145.69;100.00;72122.78;5074114;28;20575;-77
2022/05/03 03:34:47;;;;;;;30.00;15.33;;;;;;;-145.69;100.00;72100.91;5073651;28;20222;-76
2022/05/03 03:37:16;;;;;;;34.07;16.00;;;;;;;-145.69;100.00;72084.97;5073964;28;20653;-77
2022/05/03 03:39:43;;;;;;;35.43;17.50;;;;;;;-145.69;100.00;72102.88;5073910;28;20293;-76
2022/05/03 03:42:10;;;;;;;35.40;16.53;;;;;;;-145.69;100.00;72094.94;5073762;28;20679;-76
2022/05/03 03:44:36;;;;;;;32.83;16.50;;;;;;;-145.69;100.00;72088.97;5074072;28;20245;-76
2022/05/03 03:47:04;;;;;;;29.90;15.67;;;;;;;-145.69;100.00;72102.88;5073698;28;20202;-76
2022/05/03 03:49:31;;;;;;;36.20;16.87;;;;;;;-145.69;100.00;72088.97;5073257;28;20241;-76
2022/05/03 03:52:00;;;;;;;30.97;16.67;;;;;;;-145.69;100.00;72086.97;5073491;28;20202;-76
2022/05/03 03:54:26;;;;;;;28.80;15.73;;;;;;;-145.69;100.00;72079.00;5073039;28;20226;-76
2022/05/03 03:56:55;;;;;;;27.53;14.90;;;;;;;-145.69;100.00;72092.94;5061359;28;20203;-76
2022/05/03 03:59:22;;;;;;;34.53;17.33;;;;;;;-145.69;100.00;72079.00;5053641;28;20203;-76
2022/05/03 04:01:49;;;;;;;34.43;17.97;;;;;;;-145.69;100.00;72075.03;5053387;28;20654;-75
2022/05/03 04:04:17;;;;;;;34.60;15.87;;;;;;;-145.69;100.00;72077.00;5053809;28;20203;-77
2022/05/03 04:06:44;;;;;;;29.23;15.83;;;;;;;-145.69;100.00;72077.00;5053040;28;20199;-76
2022/05/03 04:09:11;;;;;;;36.93;17.50;;;;;;;-145.69;100.00;72075.03;5053573;28;20557;-76
2022/05/03 04:11:45;;;;;;;25.97;14.30;;;;;;;-145.69;100.00;72084.97;5053637;28;20195;-76
2022/05/03 04:14:12;;;;;;;27.33;13.63;;;;;;;-145.69;100.00;72094.94;5072895;28;20653;-76
2022/05/03 04:16:39;;;;;;;24.10;14.17;;;;;;;-145.69;100.00;72096.91;5073423;28;20415;-76
2022/05/03 04:19:05;;;;;;;23.47;13.33;;;;;;;-145.69;100.00;72090.94;5073259;28;20657;-77
2022/05/03 04:21:32;;;;;;;22.43;12.83;;;;;;;-145.69;100.00;72100.91;5073043;28;20534;-76
2022/05/03 04:23:59;;;;;;;26.83;13.43;;;;;;;-145.69;100.00;72090.94;5073003;28;20280;-76
2022/05/03 04:26:26;;;;;;;24.50;13.20;;;;;;;-145.69;100.00;72090.94;5072944;28;20198;-76
2022/05/03 04:28:56;;;;;;;32.80;15.10;;;;;;;-145.69;100.00;72082.97;5073046;28;20226;-76
2022/05/03 04:31:25;;;;;;;29.90;15.03;;;;;;;-145.69;100.00;72055.13;5073259;28;20244;-75
2022/05/03 04:33:51;;;;;;;39.23;17.37;;;;;;;-145.69;100.00;72041.19;5073044;28;20199;-76
2022/05/03 04:36:21;;;;;;;28.57;15.60;;;;;;;-145.69;100.00;72029.25;5073082;28;20226;-76
2022/05/03 04:38:48;;;;;;;25.47;14.10;;;;;;;-145.69;100.00;72027.25;5073140;28;20257;-76
2022/05/03 04:41:14;;;;;;;28.70;15.40;;;;;;;-145.69;100.00;72015.31;5072883;28;20198;-76
2022/05/03 04:43:43;;;;;;;26.30;13.67;;;;;;;-145.69;100.00;72001.38;5072396;28;20265;-75
2022/05/03 04:46:09;;;;;;;24.30;13.07;;;;;;;-145.69;100.00;72003.38;5073117;28;20207;-76
2022/05/03 04:48:36;;;;;;;25.03;13.77;;;;;;;-145.69;100.00;71987.47;5072750;28;20712;-76
2022/05/03 04:51:02;;;;;;;21.03;12.40;;;;;;;-145.69;100.00;71977.50;5072998;28;20195;-76
2022/05/03 04:53:29;;;;;;;20.43;11.63;;;;;;;-145.69;100.00;71967.56;5072765;28;20649;-76
2022/05/03 04:55:55;;;;;;;20.60;12.20;;;;;;;-145.69;100.00;71953.63;5072473;28;20226;-76
2022/05/03 04:58:22;;;;;;;21.60;11.40;;;;;;;-145.69;100.00;71951.63;5073009;28;20205;-76
2022/05/03 05:00:49;;;;;;;22.93;12.67;;;;;;;-145.69;100.00;71927.75;5073097;28;20199;-77
2022/05/03 05:03:16;;;;;;;26.23;14.47;;;;;;;-145.69;100.00;71911.84;5072788;28;20202;-76
2022/05/03 05:05:42;;;;;;;22.33;12.17;;;;;;;-145.69;100.00;71911.84;5074058;28;20202;-76
2022/05/03 05:08:09;;;;;;;18.13;10.93;;;;;;;-145.69;100.00;71899.88;5076767;28;20190;-75
2022/05/03 05:10:36;;;;;;;19.27;11.57;;;;;;;-145.69;100.00;71887.94;5076842;28;20211;-76
2022/05/03 05:13:02;;;;;;;16.63;10.77;;;;;;;-145.69;100.00;71895.91;5076625;28;20202;-76
2022/05/03 05:15:29;;;;;;;17.03;10.63;;;;;;;-145.69;100.00;71895.91;5076749;28;20222;-76
2022/05/03 05:17:58;;;;;;;17.13;10.37;;;;;;;-145.69;100.00;71891.94;5076422;28;20583;-76
2022/05/03 05:20:26;;;;;;;15.80;9.87;;;;;;;-145.69;100.00;71895.91;5076889;28;20195;-76
2022/05/03 05:22:52;;;;;;;19.73;10.93;;;;;;;-145.69;100.00;71880.00;5076244;28;20678;-76
2022/05/03 05:25:19;;;;;;;20.63;12.73;;;;;;;-145.69;100.00;71860.09;5076539;28;20726;-76
2022/05/03 05:27:46;;;;;;;19.97;11.17;;;;;;;-145.69;100.00;71870.03;5076376;28;20205;-76
2022/05/03 05:30:13;;;;;;;15.27;9.70;;;;;;;-145.69;100.00;71876.00;5076525;28;20198;-76
2022/05/03 05:32:39;;;;;;;15.47;9.47;;;;;;;-145.69;100.00;71881.97;5076673;28;20236;-76
2022/05/03 05:35:08;;;;;;;15.03;9.30;;;;;;;-145.69;100.00;71887.94;5076308;28;20257;-76
2022/05/03 05:37:35;;;;;;;16.73;10.00;;;;;;;-145.69;100.00;71893.91;5076199;28;20256;-76
2022/05/03 05:40:01;;;;;;;16.97;10.43;;;;;;;-145.69;100.00;71878.00;5076070;28;20556;-76
2022/05/03 05:42:28;;;;;;;18.40;10.33;;;;;;;-145.69;100.00;71870.03;5076033;28;20198;-76
2022/05/03 05:44:55;;;;;;;20.10;11.20;;;;;;;-145.69;100.00;71864.06;5075960;28;20534;-76
2022/05/03 05:47:22;;;;;;;23.80;12.90;;;;;;;-145.69;100.00;71860.09;5076080;28;20226;-76
2022/05/03 05:49:49;;;;;;;23.83;12.67;;;;;;;-145.69;100.00;71836.22;5060893;28;20644;-76
2022/05/03 05:55:02;;;;;;;16.23;10.73;;;;;;;-145.69;100.00;71812.31;5075928;28;20229;-76
2022/05/03 05:57:28;;;;;;;27.07;14.10;;;;;;;-145.69;100.00;71790.44;5075820;28;20199;-75
2022/05/03 05:59:55;;;;;;;19.67;11.13;;;;;;;-145.69;100.00;71796.41;5076042;28;20256;-76
2022/05/03 06:02:21;;;;;;;21.20;12.37;;;;;;;-145.69;100.00;71772.53;5075558;28;20210;-76
2022/05/03 06:04:49;;;;;;;22.00;12.80;;;;;;;-145.69;100.00;71748.66;5075775;28;20214;-75
2022/05/03 06:07:17;;;;;;;20.50;12.80;;;;;;;-145.69;100.00;71720.78;5075913;28;20256;-75
2022/05/03 06:09:44;;;;;;;15.97;9.83;;;;;;;-145.69;100.00;71700.88;5075863;28;20289;-76
2022/05/03 06:12:11;;;;;;;16.63;10.80;;;;;;;-145.69;100.00;71684.97;5075393;28;20289;-76
2022/05/03 06:14:38;;;;;;;15.17;9.63;;;;;;;-145.69;100.00;71635.22;5075569;28;20565;-75
2022/05/03 06:17:04;;;;;;;16.93;10.87;;;;;;;-145.69;100.00;71577.50;5074684;28;20203;-76
2022/05/03 06:19:31;;;;;;;14.27;8.50;;;;;;;-145.69;100.00;71513.81;5075760;28;20202;-77
2022/05/03 06:21:57;;;;;;;10.63;6.90;;;;;;;-145.69;100.00;71446.16;5075566;28;20195;-76
2022/05/03 06:24:25;;;;;;;12.03;7.57;;;;;;;-145.69;100.00;71384.47;5075375;28;20195;-76
2022/05/03 06:26:52;;;;;;;9.00;6.00;;;;;;;-145.69;100.00;71338.72;5075430;28;20252;-77
2022/05/03 06:29:18;;;;;;;8.98;5.72;;;;;;;-145.69;100.00;71384.47;5075282;28;20199;-76
2022/05/03 06:31:44;;;;;;;6.70;5.35;;;;;;;-145.69;100.00;71374.53;5074962;28;20226;-76
2022/05/03 06:34:11;;;;;;;9.52;5.72;;;;;;;-145.69;100.00;71314.84;5075186;28;20699;-76
2022/05/03 06:36:38;;;;;;;7.75;5.28;;;;;;;-145.69;100.00;71277.03;5075234;28;20231;-76
2022/05/03 06:39:06;;;;;;;8.65;5.93;;;;;;;-145.69;100.00;71263.09;5074800;28;20191;-76
2022/05/03 06:41:34;;;;;;;7.45;5.57;;;;;;;-145.69;100.00;71227.28;5075066;28;20202;-76
2022/05/03 06:44:00;;;;;;;7.00;5.05;;;;;;;-145.69;100.00;71201.41;5075004;28;20652;-76
2022/05/03 06:46:28;;;;;;;7.43;5.60;;;;;;;-145.69;99.95;71173.56;5074844;28;20203;-77
2022/05/03 06:48:55;;;;;;;7.88;5.05;;;;;;;-145.69;100.00;71147.69;5074832;28;20276;-76
2022/05/03 06:51:24;;;;;;;9.10;5.50;;;;;;;-145.69;96.26;71131.78;5074689;28;20205;-76
2022/05/03 06:53:51;;;;;;;9.52;6.20;;;;;;;-145.69;90.43;71133.78;5074882;28;20199;-76
2022/05/03 06:56:17;;;;;;;8.93;6.32;;;;;;;-145.69;88.54;71153.66;5074828;28;20257;-76
2022/05/03 06:58:45;;;;;;;9.90;6.65;;;;;;;-145.69;87.37;71084.03;5074169;28;20438;-76
2022/05/03 07:01:13;;;;;;;9.75;6.40;;;;;;;-145.69;87.41;71072.09;5074986;28;20198;-76
2022/05/03 07:03:41;;;;;;;10.88;6.00;;;;;;;-145.69;84.77;71026.31;5074936;28;20285;-76
2022/05/03 07:06:09;;;;;;;8.82;6.10;;;;;;;-145.69;87.26;71046.22;5074722;28;20225;-76
2022/05/03 07:08:36;;;;;;;9.32;6.03;;;;;;;-145.69;85.08;71028.31;5073995;28;20445;-76
2022/05/03 07:11:03;;;;;;;10.05;5.25;;;;;;;-145.69;83.12;70996.47;5065671;28;20234;-76
2022/05/03 07:13:30;;;;;;;7.63;4.80;;;;;;;-145.69;80.43;70956.69;5054301;28;20729;-76
2022/05/03 07:15:58;;;;;;;8.23;5.43;;;;;;;-145.69;81.99;71030.31;5054117;28;20724;-76
2022/05/03 07:23:54;;;;;;;6.55;4.97;;;;;;;-145.69;80.16;70940.78;5054262;28;20264;-76
2022/05/03 07:26:21;;;;;;;11.43;5.20;;;;;;;-145.69;77.50;71008.41;5053887;28;20199;-76
2022/05/03 07:28:48;;;;;;;7.43;4.80;;;;;;;-145.69;77.96;71008.41;5053441;28;20199;-75
2022/05/03 07:31:16;;;;;;;10.25;5.55;;;;;;;-145.69;76.25;70966.63;5054120;28;20290;-76
2022/05/03 07:33:43;;;;;;;8.75;4.97;;;;;;;-145.69;76.04;70922.88;5054348;28;20204;-77
2022/05/03 07:36:10;;;;;;;8.07;5.28;;;;;;;-145.69;78.28;70984.53;5053727;28;20231;-77
2022/05/03 07:38:37;;;;;;;10.05;5.00;;;;;;;-145.69;82.79;71030.31;5055098;28;20687;-76
2022/05/03 07:41:05;;;;;;;5.40;4.60;;;;;;;-145.69;85.28;71038.25;5074096;28;20203;-76
2022/05/03 07:43:32;;;;;;;12.43;5.68;;;;;;;-145.69;84.37;71028.31;5074001;28;20214;-76
2022/05/03 07:45:58;;;;;;;7.97;5.30;;;;;;;-145.69;79.73;71030.31;5073658;28;20355;-76
2022/05/03 07:48:26;;;;;;;8.63;4.93;;;;;;;-145.69;80.57;71012.41;5073431;28;20238;-77
2022/05/03 07:50:53;;;;;;;7.03;5.40;;;;;;;-145.69;77.84;70976.59;5073755;28;20263;-76
2022/05/03 07:53:19;;;;;;;6.05;4.90;;;;;;;-145.69;75.62;70938.78;5073322;28;20198;-77
2022/05/03 07:55:46;;;;;;;7.70;4.82;;;;;;;-145.69;76.05;70940.78;5055872;28;20288;-76
2022/05/03 07:58:13;;;;;;;7.70;4.70;;;;;;;-145.69;80.23;70924.84;5053587;28;20207;-77
2022/05/03 08:00:40;;;;;;;8.30;4.25;;;;;;;-145.69;72.59;70928.84;5053459;28;20253;-76
2022/05/03 08:03:07;;;;;;;7.88;4.30;;;;;;;-145.69;75.58;70928.84;5053616;28;20200;-76
2022/05/03 08:05:38;;;;;;;8.23;4.90;;;;;;;-145.69;77.42;70968.63;5067402;28;20198;-76
2022/05/03 08:08:05;;;;;;;6.68;4.13;;;;;;;-145.69;73.05;70908.94;5073697;28;20214;-77
2022/05/03 08:10:33;;;;;;;5.55;4.07;;;;;;;-145.69;69.09;70859.19;5073534;28;20207;-76
2022/05/03 08:13:00;;;;;;;5.63;4.00;;;;;;;-145.69;69.72;70885.06;5072984;28;20723;-76
2022/05/03 08:15:26;;;;;;;5.63;4.38;;;;;;;-145.69;67.41;70851.25;5072994;28;20653;-77
2022/05/03 08:17:53;;;;;;;7.57;3.63;;;;;;;-145.69;66.71;70797.53;5072697;28;20905;-76
2022/05/03 08:20:19;;;;;;;5.75;3.63;;;;;;;-145.69;67.58;70779.63;5073534;28;20195;-76
2022/05/03 08:22:47;;;;;;;5.03;3.88;;;;;;;-145.69;65.59;70817.41;5073355;28;20199;-76
2022/05/03 08:25:14;;;;;;;5.07;3.60;;;;;;;-145.69;68.78;70813.44;5073304;28;20207;-77
2022/05/03 08:27:41;;;;;;;5.30;3.83;;;;;;;-145.69;63.32;70845.28;5073806;28;20199;-76
2022/05/03 08:30:08;;;;;;;7.10;4.47;;;;;;;-145.69;71.27;70940.78;5073173;28;20205;-76
2022/05/03 08:32:35;;;;;;;8.00;4.75;;;;;;;-145.69;75.62;70972.59;5070628;28;20198;-77
2022/05/03 08:35:02;;;;;;;7.88;5.30;;;;;;;-145.69;82.78;70994.50;5072890;28;20269;-76
2022/05/03 08:43:04;;;;;;;9.65;6.40;;;;;;;-145.69;91.74;71056.16;5064309;28;20206;-77
2022/05/03 08:45:31;;;;;;;11.80;6.20;;;;;;;-145.69;93.02;71076.06;5053195;28;20206;-77
2022/05/03 08:48:00;;;;;;;12.43;6.40;;;;;;;-145.69;91.76;71014.38;5053072;28;20717;-76
2022/05/03 08:50:32;;;;;;;9.50;6.07;;;;;;;-145.69;85.17;70926.84;5052666;28;20220;-77
2022/05/03 08:53:01;;;;;;;6.82;5.18;;;;;;;-145.69;77.55;70904.97;5052945;28;20386;-77
2022/05/03 08:55:30;;;;;;;7.60;5.20;;;;;;;-145.69;79.01;70912.91;5052672;28;20223;-76
2022/05/03 08:57:57;;;;;;;6.55;4.80;;;;;;;-145.69;79.09;70857.22;5052823;28;20558;-77
2022/05/03 09:00:24;;;;;;;7.60;4.85;;;;;;;-145.69;74.62;70899.00;5052754;28;20203;-76
2022/05/03 09:02:52;;;;;;;6.90;4.10;;;;;;;-145.69;70.75;70944.75;5052814;28;20561;-76
2022/05/03 09:05:20;;;;;;;5.45;3.45;;;;;;;-145.69;70.83;70974.59;5062503;28;20198;-76
2022/05/03 09:07:48;;;;;;;7.30;3.33;;;;;;;-145.69;72.51;70992.50;5072659;28;20207;-76
2022/05/03 09:10:18;;;;;;;7.93;3.83;;;;;;;-145.69;72.97;70964.66;5072445;28;20236;-76
2022/05/03 09:12:47;;;;;;;5.55;3.53;;;;;;;-145.69;78.50;70990.50;5072882;28;20198;-76
2022/05/03 09:15:14;;;;;;;9.95;3.97;;;;;;;-145.69;78.38;71004.44;5072869;28;20285;-76
2022/05/03 09:17:42;;;;;;;4.47;3.45;;;;;;;-145.69;74.96;71012.41;5072630;28;20226;-77
2022/05/03 09:25:47;;;;;;;8.05;4.63;;;;;;;-145.69;77.07;71016.38;5072391;28;20209;-76
2022/05/03 09:28:15;;;;;;;6.70;4.50;;;;;;;-145.69;79.14;71020.34;5072152;28;20675;-76
2022/05/03 09:30:50;;;;;;;8.45;3.92;;;;;;;-145.69;78.73;71002.44;5072511;28;20203;-77
2022/05/03 09:33:18;;;;;;;9.70;4.50;;;;;;;-145.69;75.00;70984.53;5072352;28;20198;-76
2022/05/03 09:35:45;;;;;;;7.68;5.03;;;;;;;-145.69;75.05;70996.47;5072151;28;20198;-76
2022/05/03 09:38:11;;;;;;;7.43;4.95;;;;;;;-145.69;76.19;70998.47;5072565;28;20253;-75
2022/05/03 09:40:40;;;;;;;11.27;5.28;;;;;;;-145.69;74.66;70988.53;5062097;28;20952;-76
2022/05/03 09:43:07;;;;;;;6.68;5.00;;;;;;;-145.69;78.23;70992.50;5052363;28;20203;-76
2022/05/03 09:45:36;;;;;;;8.35;4.70;;;;;;;-145.69;79.71;70980.56;5052171;28;20207;-76
2022/05/03 09:48:03;;;;;;;8.35;5.22;;;;;;;-145.69;78.65;70978.56;5052182;28;20654;-76
2022/05/03 09:50:40;;;;;;;6.75;4.05;;;;;;;-145.69;75.24;70964.66;5052425;28;20613;-76
2022/05/03 09:53:15;;;;;;;9.55;3.78;;;;;;;-145.69;74.60;70924.84;5054282;28;20268;-76
2022/05/03 09:55:45;;;;;;;7.00;4.68;;;;;;;-145.69;74.84;70932.81;5058295;28;20222;-77
2022/05/03 09:58:12;;;;;;;6.78;4.60;;;;;;;-145.69;75.35;70924.84;5054459;28;20207;-76
2022/05/03 10:00:42;;;;;;;6.05;4.47;;;;;;;-145.69;73.30;70924.84;5055943;28;20546;-76
2022/05/03 10:03:11;;;;;;;9.20;4.50;;;;;;;-145.69;75.57;70924.84;5055962;28;20203;-77
2022/05/03 10:05:39;;;;;;;9.68;3.90;;;;;;;-145.69;72.82;70948.72;5069874;28;20253;-76
2022/05/03 10:08:07;;;;;;;6.40;3.65;;;;;;;-145.69;70.18;70960.66;5075689;28;20198;-76
2022/05/03 10:10:34;;;;;;;7.82;4.10;;;;;;;-145.69;74.81;70948.72;5075540;28;20226;-76
2022/05/03 10:13:01;;;;;;;5.57;3.83;;;;;;;-145.69;74.07;70908.94;5075689;28;20202;-76
2022/05/03 10:21:12;;;;;;;8.18;3.80;;;;;;;-145.69;70.74;70920.88;5075407;28;20194;-76
2022/05/03 10:23:39;;;;;;;10.77;4.20;;;;;;;-145.69;68.10;70891.03;5075442;28;20202;-76
2022/05/03 10:26:08;;;;;;;6.07;4.40;;;;;;;-145.69;65.91;70877.09;5075609;28;20218;-75
2022/05/03 10:29:06;;;;;;;9.50;4.32;;;;;;;-145.69;65.31;70809.47;5075448;28;20203;-76
2022/05/03 10:31:52;;;;;;;9.15;4.13;;;;;;;-145.69;63.16;70861.19;5075369;28;20317;-76
2022/05/03 10:34:48;;;;;;;5.00;3.85;;;;;;;-145.69;66.78;70839.31;5073910;28;20552;-76
2022/05/03 10:37:16;;;;;;;6.05;3.92;;;;;;;-145.69;65.39;70845.28;5075265;28;20222;-77
2022/05/03 10:39:53;;;;;;;6.65;3.55;;;;;;;-145.69;69.57;70765.69;5074707;28;20205;-76
2022/05/03 10:42:23;;;;;;;13.18;4.10;;;;;;;-145.69;72.39;70739.81;5075218;28;20206;-76
2022/05/03 10:45:03;;;;;;;8.40;4.03;;;;;;;-145.69;73.94;70741.81;5074409;28;20653;-76
2022/05/03 10:48:04;;;;;;;5.70;3.90;;;;;;;-145.69;74.69;70765.69;5075099;28;20203;-76
2022/05/03 10:50:36;;;;;;;7.03;3.15;;;;;;;-145.69;71.90;70767.69;5052685;28;20202;-76
2022/05/03 10:53:23;;;;;;;7.80;3.90;;;;;;;-145.69;75.78;70789.56;5074899;28;20542;-77
2022/05/03 10:56:16;;;;;;;6.25;3.58;;;;;;;-145.69;73.98;70777.63;5075260;28;20255;-76
2022/05/03 10:58:43;;;;;;;6.53;3.38;;;;;;;-145.69;72.71;70771.66;5074773;28;20546;-76
2022/05/03 11:01:11;;;;;;;8.75;3.80;;;;;;;-145.69;70.90;70765.69;5074594;28;20207;-76
2022/05/03 11:03:41;;;;;;;7.68;3.78;;;;;;;-145.69;75.27;70785.59;5074321;28;20203;-77
2022/05/03 11:06:39;;;;;;;5.65;3.30;;;;;;;-145.69;74.36;70847.25;5054617;28;20199;-77
2022/05/03 11:09:10;;;;;;;4.85;3.10;;;;;;;-145.69;74.68;70853.22;5054626;28;20265;-76
2022/05/03 11:11:57;;;;;;;5.93;3.08;;;;;;;-145.69;74.39;70861.19;5054601;28;20200;-76
2022/05/03 11:14:50;;;;;;;8.88;3.63;;;;;;;-145.69;74.90;70845.28;5054735;28;20207;-76
2022/05/03 11:17:17;;;;;;;8.65;3.40;;;;;;;-145.69;73.20;70845.28;5054036;28;20234;-76
2022/05/03 11:19:50;;;;;;;11.68;3.53;;;;;;;-145.69;71.96;70815.44;5054539;28;20206;-77
2022/05/03 11:22:20;;;;;;;7.72;3.22;;;;;;;-145.69;73.52;70779.63;5054073;28;20210;-76
2022/05/03 11:24:48;;;;;;;6.43;3.30;;;;;;;-145.69;67.02;70743.81;5054365;28;20252;-77
2022/05/03 11:27:16;;;;;;;5.78;3.20;;;;;;;-145.69;68.49;70749.78;5054223;28;20195;-76
2022/05/03 11:29:45;;;;;;;4.30;2.60;;;;;;;-145.69;73.50;70741.81;5054053;28;20203;-77
2022/05/03 11:32:12;;;;;;;8.40;3.08;;;;;;;-145.69;73.46;70801.50;5053982;28;20206;-76
2022/05/03 11:34:39;;;;;;;6.55;2.50;;;;;;;-145.69;74.85;70791.56;5062440;28;20221;-76
2022/05/03 11:37:07;;;;;;;6.13;2.95;;;;;;;-145.69;72.15;70719.94;5073673;28;20225;-76
2022/05/03 11:39:37;;;;;;;5.38;3.03;;;;;;;-145.69;69.02;70721.91;5073751;28;20199;-77
2022/05/03 11:42:06;;;;;;;4.68;3.05;;;;;;;-145.69;65.61;70690.09;5073509;28;20199;-76
2022/05/03 11:44:33;;;;;;;3.83;2.70;;;;;;;-145.69;65.70;70743.81;5073755;28;20206;-77
2022/05/03 11:47:03;;;;;;;5.43;2.53;;;;;;;-145.69;70.91;70825.38;5073771;28;20712;-76
2022/05/03 11:49:31;;;;;;;6.65;2.63;;;;;;;-145.69;69.07;70837.31;5073549;28;20268;-76